sensor_id;sensor_type;location;lat;lon;timestamp;temperature;humidity
31084;DHT22;36333;51.382;0.016;2022-10-14T00:01:16;10.30;99.90
31084;DHT22;36333;51.382;0.016;2022-10-14T00:03:44;10.30;99.90
31084;DHT22;36333;51.382;0.016;2022-10-14T00:06:14;10.30;99.90
31084;DHT22;36333;51.382;0.016;2022-10-14T00:08:43;10.40;99.90
31084;DHT22;36333;51.382;0.016;2022-10-14T00:11:16;10.30;99.90
31084;DHT22;36333;51.382;0.016;2022-10-14T00:13:44;10.30;99.90
31084;DHT22;36333;51.382;0.016;2022-10-14T00:16:21;11.30;99.90
31084;DHT22;36333;51.382;0.016;2022-10-14T00:18:49;10.40;99.90
31084;DHT22;36333;51.382;0.016;2022-10-14T00:21:17;10.60;99.90
31084;DHT22;36333;51.382;0.016;2022-10-14T00:23:46;10.30;99.90
31084;DHT22;36333;51.382;0.016;2022-10-14T00:26:19;10.30;99.90
31084;DHT22;36333;51.382;0.016;2022-10-14T00:28:48;10.30;99.90
31084;DHT22;36333;51.382;0.016;2022-10-14T00:31:17;10.30;99.90
31084;DHT22;36333;51.382;0.016;2022-10-14T00:33:47;10.40;99.90
31084;DHT22;36333;51.382;0.016;2022-10-14T00:36:17;10.60;99.90
31084;DHT22;36333;51.382;0.016;2022-10-14T00:38:45;10.40;99.90
31084;DHT22;36333;51.382;0.016;2022-10-14T00:41:19;10.40;99.90
31084;DHT22;36333;51.382;0.016;2022-10-14T00:46:34;10.40;99.90
31084;DHT22;36333;51.382;0.016;2022-10-14T00:49:22;10.40;99.90
31084;DHT22;36333;51.382;0.016;2022-10-14T00:51:57;10.50;99.90
31084;DHT22;36333;51.382;0.016;2022-10-14T00:54:31;10.50;99.90
31084;DHT22;36333;51.382;0.016;2022-10-14T00:57:00;11.70;99.90
31084;DHT22;36333;51.382;0.016;2022-10-14T00:59:30;10.80;99.90
31084;DHT22;36333;51.382;0.016;2022-10-14T01:01:58;10.50;99.90
31084;DHT22;36333;51.382;0.016;2022-10-14T01:04:26;10.50;99.90
31084;DHT22;36333;51.382;0.016;2022-10-14T01:13:00;10.50;99.90
31084;DHT22;36333;51.382;0.016;2022-10-14T01:24:07;10.40;99.90
31084;DHT22;36333;51.382;0.016;2022-10-14T01:26:55;10.60;99.90
31084;DHT22;36333;51.382;0.016;2022-10-14T01:29:58;10.40;99.90
31084;DHT22;36333;51.382;0.016;2022-10-14T01:32:49;10.40;99.90
31084;DHT22;36333;51.382;0.016;2022-10-14T01:38:09;10.30;99.90
31084;DHT22;36333;51.382;0.016;2022-10-14T01:41:01;11.00;99.90
31084;DHT22;36333;51.382;0.016;2022-10-14T01:43:31;10.30;99.90
31084;DHT22;36333;51.382;0.016;2022-10-14T01:46:01;10.60;99.90
31084;DHT22;36333;51.382;0.016;2022-10-14T01:48:33;11.00;99.90
31084;DHT22;36333;51.382;0.016;2022-10-14T01:51:08;10.20;99.90
31084;DHT22;36333;51.382;0.016;2022-10-14T01:54:01;10.80;99.90
31084;DHT22;36333;51.382;0.016;2022-10-14T01:56:31;10.30;99.90
31084;DHT22;36333;51.382;0.016;2022-10-14T01:59:09;10.90;99.90
31084;DHT22;36333;51.382;0.016;2022-10-14T02:01:37;10.10;99.90
31084;DHT22;36333;51.382;0.016;2022-10-14T02:04:15;10.20;99.90
31084;DHT22;36333;51.382;0.016;2022-10-14T02:06:50;10.10;99.90
31084;DHT22;36333;51.382;0.016;2022-10-14T02:09:41;10.00;99.90
31084;DHT22;36333;51.382;0.016;2022-10-14T02:15:19;9.90;99.90
31084;DHT22;36333;51.382;0.016;2022-10-14T02:17:52;11.10;99.90
31084;DHT22;36333;51.382;0.016;2022-10-14T02:20:33;10.00;99.90
31084;DHT22;36333;51.382;0.016;2022-10-14T02:23:30;10.00;99.90
31084;DHT22;36333;51.382;0.016;2022-10-14T02:25:59;10.00;99.90
31084;DHT22;36333;51.382;0.016;2022-10-14T02:28:28;10.00;99.90
31084;DHT22;36333;51.382;0.016;2022-10-14T02:31:01;10.10;99.90
31084;DHT22;36333;51.382;0.016;2022-10-14T02:33:34;10.20;99.90
31084;DHT22;36333;51.382;0.016;2022-10-14T02:36:09;10.90;99.90
31084;DHT22;36333;51.382;0.016;2022-10-14T02:38:39;10.10;99.90
31084;DHT22;36333;51.382;0.016;2022-10-14T02:41:13;10.10;99.90
31084;DHT22;36333;51.382;0.016;2022-10-14T02:43:43;10.60;99.90
31084;DHT22;36333;51.382;0.016;2022-10-14T02:46:10;10.20;99.90
31084;DHT22;36333;51.382;0.016;2022-10-14T02:48:39;10.20;99.90
31084;DHT22;36333;51.382;0.016;2022-10-14T02:51:06;10.20;99.90
31084;DHT22;36333;51.382;0.016;2022-10-14T02:53:37;10.20;99.90
31084;DHT22;36333;51.382;0.016;2022-10-14T02:56:05;11.10;99.90
31084;DHT22;36333;51.382;0.016;2022-10-14T02:58:33;10.20;99.90
31084;DHT22;36333;51.382;0.016;2022-10-14T03:01:01;10.20;99.90
31084;DHT22;36333;51.382;0.016;2022-10-14T03:03:29;10.60;99.90
31084;DHT22;36333;51.382;0.016;2022-10-14T03:05:57;10.70;99.90
31084;DHT22;36333;51.382;0.016;2022-10-14T03:08:27;10.20;99.90
31084;DHT22;36333;51.382;0.016;2022-10-14T03:10:57;10.20;99.90
31084;DHT22;36333;51.382;0.016;2022-10-14T03:13:26;10.20;99.90
31084;DHT22;36333;51.382;0.016;2022-10-14T03:15:54;10.30;99.90
31084;DHT22;36333;51.382;0.016;2022-10-14T03:18:23;11.50;99.90
31084;DHT22;36333;51.382;0.016;2022-10-14T03:20:56;10.30;99.90
31084;DHT22;36333;51.382;0.016;2022-10-14T03:23:31;10.30;99.90
31084;DHT22;36333;51.382;0.016;2022-10-14T03:25:58;10.50;99.90
31084;DHT22;36333;51.382;0.016;2022-10-14T03:28:32;10.60;99.90
31084;DHT22;36333;51.382;0.016;2022-10-14T03:31:16;10.90;99.90
31084;DHT22;36333;51.382;0.016;2022-10-14T03:34:10;10.30;99.90
31084;DHT22;36333;51.382;0.016;2022-10-14T03:36:39;10.70;99.90
31084;DHT22;36333;51.382;0.016;2022-10-14T03:39:09;11.00;99.90
31084;DHT22;36333;51.382;0.016;2022-10-14T03:41:45;10.30;99.90
31084;DHT22;36333;51.382;0.016;2022-10-14T03:44:17;10.80;99.90
31084;DHT22;36333;51.382;0.016;2022-10-14T03:47:04;10.30;99.90
31084;DHT22;36333;51.382;0.016;2022-10-14T03:49:33;10.30;99.90
31084;DHT22;36333;51.382;0.016;2022-10-14T03:52:09;10.50;99.90
31084;DHT22;36333;51.382;0.016;2022-10-14T03:54:37;10.40;99.90
31084;DHT22;36333;51.382;0.016;2022-10-14T03:57:05;10.40;99.90
31084;DHT22;36333;51.382;0.016;2022-10-14T03:59:40;10.40;99.90
31084;DHT22;36333;51.382;0.016;2022-10-14T04:02:08;10.40;99.90
31084;DHT22;36333;51.382;0.016;2022-10-14T04:04:39;11.20;99.90
31084;DHT22;36333;51.382;0.016;2022-10-14T04:07:08;10.90;99.90
31084;DHT22;36333;51.382;0.016;2022-10-14T04:09:36;10.40;99.90
31084;DHT22;36333;51.382;0.016;2022-10-14T04:12:07;10.40;99.90
31084;DHT22;36333;51.382;0.016;2022-10-14T04:14:49;11.20;99.90
31084;DHT22;36333;51.382;0.016;2022-10-14T04:17:17;10.40;99.90
31084;DHT22;36333;51.382;0.016;2022-10-14T04:19:45;10.40;99.90
31084;DHT22;36333;51.382;0.016;2022-10-14T04:22:16;10.50;99.90
31084;DHT22;36333;51.382;0.016;2022-10-14T04:24:47;10.50;99.90
31084;DHT22;36333;51.382;0.016;2022-10-14T04:27:15;10.40;99.90
31084;DHT22;36333;51.382;0.016;2022-10-14T04:29:57;10.40;99.90
31084;DHT22;36333;51.382;0.016;2022-10-14T04:32:31;11.00;99.90
31084;DHT22;36333;51.382;0.016;2022-10-14T04:34:59;10.40;99.90
31084;DHT22;36333;51.382;0.016;2022-10-14T04:37:30;10.40;99.90
31084;DHT22;36333;51.382;0.016;2022-10-14T04:40:02;10.70;99.90
31084;DHT22;36333;51.382;0.016;2022-10-14T04:42:31;10.40;99.90
31084;DHT22;36333;51.382;0.016;2022-10-14T04:45:03;10.40;99.90
31084;DHT22;36333;51.382;0.016;2022-10-14T04:47:42;10.50;99.90
31084;DHT22;36333;51.382;0.016;2022-10-14T04:50:18;10.50;99.90
31084;DHT22;36333;51.382;0.016;2022-10-14T04:53:19;10.50;99.90
31084;DHT22;36333;51.382;0.016;2022-10-14T04:56:01;10.50;99.90
31084;DHT22;36333;51.382;0.016;2022-10-14T04:58:29;10.50;99.90
31084;DHT22;36333;51.382;0.016;2022-10-14T05:00:57;10.50;99.90
31084;DHT22;36333;51.382;0.016;2022-10-14T05:03:29;11.70;99.90
31084;DHT22;36333;51.382;0.016;2022-10-14T05:05:58;11.00;99.90
31084;DHT22;36333;51.382;0.016;2022-10-14T05:08:26;10.50;99.90
31084;DHT22;36333;51.382;0.016;2022-10-14T05:10:56;10.50;99.90
31084;DHT22;36333;51.382;0.016;2022-10-14T05:13:39;10.50;99.90
31084;DHT22;36333;51.382;0.016;2022-10-14T05:16:08;11.30;99.90
31084;DHT22;36333;51.382;0.016;2022-10-14T05:18:37;10.50;99.90
31084;DHT22;36333;51.382;0.016;2022-10-14T05:21:09;10.50;99.90
31084;DHT22;36333;51.382;0.016;2022-10-14T05:23:48;10.50;99.90
31084;DHT22;36333;51.382;0.016;2022-10-14T05:26:16;10.50;99.90
31084;DHT22;36333;51.382;0.016;2022-10-14T05:28:43;11.80;99.90
31084;DHT22;36333;51.382;0.016;2022-10-14T05:31:12;10.50;99.90
31084;DHT22;36333;51.382;0.016;2022-10-14T05:33:48;10.50;99.90
31084;DHT22;36333;51.382;0.016;2022-10-14T05:36:16;10.90;99.90
31084;DHT22;36333;51.382;0.016;2022-10-14T05:38:43;11.00;99.90
31084;DHT22;36333;51.382;0.016;2022-10-14T05:41:11;10.60;99.90
31084;DHT22;36333;51.382;0.016;2022-10-14T05:43:39;10.60;99.90
31084;DHT22;36333;51.382;0.016;2022-10-14T05:46:06;10.60;99.90
31084;DHT22;36333;51.382;0.016;2022-10-14T05:48:38;10.60;99.90
31084;DHT22;36333;51.382;0.016;2022-10-14T05:51:06;11.10;99.90
31084;DHT22;36333;51.382;0.016;2022-10-14T05:53:36;10.60;99.90
31084;DHT22;36333;51.382;0.016;2022-10-14T05:56:10;10.60;99.90
31084;DHT22;36333;51.382;0.016;2022-10-14T05:58:39;10.60;99.90
31084;DHT22;36333;51.382;0.016;2022-10-14T06:01:09;11.40;99.90
31084;DHT22;36333;51.382;0.016;2022-10-14T06:03:40;10.60;99.90
31084;DHT22;36333;51.382;0.016;2022-10-14T06:06:13;10.80;99.90
31084;DHT22;36333;51.382;0.016;2022-10-14T06:08:42;10.50;99.90
31084;DHT22;36333;51.382;0.016;2022-10-14T06:11:10;10.50;99.90
31084;DHT22;36333;51.382;0.016;2022-10-14T06:13:38;10.50;99.90
31084;DHT22;36333;51.382;0.016;2022-10-14T06:16:08;10.40;99.90
31084;DHT22;36333;51.382;0.016;2022-10-14T06:18:37;10.50;99.90
31084;DHT22;36333;51.382;0.016;2022-10-14T06:21:05;10.40;99.90
31084;DHT22;36333;51.382;0.016;2022-10-14T06:23:33;10.40;99.90
31084;DHT22;36333;51.382;0.016;2022-10-14T06:26:04;10.40;99.90
31084;DHT22;36333;51.382;0.016;2022-10-14T06:28:32;10.40;99.90
31084;DHT22;36333;51.382;0.016;2022-10-14T06:31:00;10.40;99.90
31084;DHT22;36333;51.382;0.016;2022-10-14T06:33:28;10.40;99.90
31084;DHT22;36333;51.382;0.016;2022-10-14T06:35:56;10.60;99.90
31084;DHT22;36333;51.382;0.016;2022-10-14T06:38:24;10.50;99.90
31084;DHT22;36333;51.382;0.016;2022-10-14T06:40:52;10.50;99.90
31084;DHT22;36333;51.382;0.016;2022-10-14T06:43:21;10.50;99.90
31084;DHT22;36333;51.382;0.016;2022-10-14T06:45:49;10.60;99.90
31084;DHT22;36333;51.382;0.016;2022-10-14T06:48:16;10.60;99.90
31084;DHT22;36333;51.382;0.016;2022-10-14T06:50:44;10.60;99.90
31084;DHT22;36333;51.382;0.016;2022-10-14T06:53:12;10.70;99.90
31084;DHT22;36333;51.382;0.016;2022-10-14T06:55:39;10.80;99.90
31084;DHT22;36333;51.382;0.016;2022-10-14T06:58:07;10.80;99.90
31084;DHT22;36333;51.382;0.016;2022-10-14T07:00:34;11.30;99.90
31084;DHT22;36333;51.382;0.016;2022-10-14T07:03:03;10.90;99.90
31084;DHT22;36333;51.382;0.016;2022-10-14T07:05:31;10.90;99.90
31084;DHT22;36333;51.382;0.016;2022-10-14T07:07:58;11.40;99.90
31084;DHT22;36333;51.382;0.016;2022-10-14T07:10:27;11.00;99.90
31084;DHT22;36333;51.382;0.016;2022-10-14T07:12:55;11.10;99.90
31084;DHT22;36333;51.382;0.016;2022-10-14T07:15:22;11.20;99.90
31084;DHT22;36333;51.382;0.016;2022-10-14T07:17:50;11.20;99.90
31084;DHT22;36333;51.382;0.016;2022-10-14T07:20:17;11.30;99.90
31084;DHT22;36333;51.382;0.016;2022-10-14T07:22:45;11.30;99.90
31084;DHT22;36333;51.382;0.016;2022-10-14T07:25:13;11.40;99.90
31084;DHT22;36333;51.382;0.016;2022-10-14T07:27:40;11.50;99.90
31084;DHT22;36333;51.382;0.016;2022-10-14T07:30:08;11.60;99.90
31084;DHT22;36333;51.382;0.016;2022-10-14T07:32:41;11.60;99.90
31084;DHT22;36333;51.382;0.016;2022-10-14T07:35:09;11.70;99.90
31084;DHT22;36333;51.382;0.016;2022-10-14T07:37:36;11.70;99.90
31084;DHT22;36333;51.382;0.016;2022-10-14T07:40:04;11.80;99.90
31084;DHT22;36333;51.382;0.016;2022-10-14T07:42:33;11.90;99.90
31084;DHT22;36333;51.382;0.016;2022-10-14T07:45:00;12.00;99.90
31084;DHT22;36333;51.382;0.016;2022-10-14T07:47:28;12.10;99.90
31084;DHT22;36333;51.382;0.016;2022-10-14T07:49:55;12.20;99.90
31084;DHT22;36333;51.382;0.016;2022-10-14T07:52:23;12.30;99.90
31084;DHT22;36333;51.382;0.016;2022-10-14T07:54:50;12.40;99.90
31084;DHT22;36333;51.382;0.016;2022-10-14T07:57:18;12.70;99.90
31084;DHT22;36333;51.382;0.016;2022-10-14T07:59:46;12.70;99.90
31084;DHT22;36333;51.382;0.016;2022-10-14T08:02:14;12.60;99.90
31084;DHT22;36333;51.382;0.016;2022-10-14T08:04:41;12.70;99.90
31084;DHT22;36333;51.382;0.016;2022-10-14T08:07:09;12.80;99.90
31084;DHT22;36333;51.382;0.016;2022-10-14T08:09:36;12.90;99.90
31084;DHT22;36333;51.382;0.016;2022-10-14T08:12:04;13.00;99.90
31084;DHT22;36333;51.382;0.016;2022-10-14T08:14:32;13.10;99.90
31084;DHT22;36333;51.382;0.016;2022-10-14T08:16:59;13.20;99.90
31084;DHT22;36333;51.382;0.016;2022-10-14T08:19:27;13.30;99.90
31084;DHT22;36333;51.382;0.016;2022-10-14T08:21:55;13.50;99.90
31084;DHT22;36333;51.382;0.016;2022-10-14T08:24:22;13.40;99.90
31084;DHT22;36333;51.382;0.016;2022-10-14T08:26:52;13.50;99.90
31084;DHT22;36333;51.382;0.016;2022-10-14T08:29:20;13.60;99.90
31084;DHT22;36333;51.382;0.016;2022-10-14T08:31:51;13.70;99.90
31084;DHT22;36333;51.382;0.016;2022-10-14T08:34:21;13.90;99.90
31084;DHT22;36333;51.382;0.016;2022-10-14T08:36:53;13.90;99.90
31084;DHT22;36333;51.382;0.016;2022-10-14T08:39:20;13.90;99.90
31084;DHT22;36333;51.382;0.016;2022-10-14T08:47:15;14.20;99.90
31084;DHT22;36333;51.382;0.016;2022-10-14T08:52:26;14.40;99.90
31084;DHT22;36333;51.382;0.016;2022-10-14T08:57:49;14.50;99.90
31084;DHT22;36333;51.382;0.016;2022-10-14T09:00:19;14.70;99.90
31084;DHT22;36333;51.382;0.016;2022-10-14T09:02:51;14.80;99.90
31084;DHT22;36333;51.382;0.016;2022-10-14T09:05:24;14.80;99.90
31084;DHT22;36333;51.382;0.016;2022-10-14T09:07:54;15.00;99.90
31084;DHT22;36333;51.382;0.016;2022-10-14T09:10:31;15.00;99.90
31084;DHT22;36333;51.382;0.016;2022-10-14T09:13:10;15.10;99.90
31084;DHT22;36333;51.382;0.016;2022-10-14T09:15:45;15.20;99.90
31084;DHT22;36333;51.382;0.016;2022-10-14T09:18:37;15.30;99.90
31084;DHT22;36333;51.382;0.016;2022-10-14T09:24:35;15.40;99.90
31084;DHT22;36333;51.382;0.016;2022-10-14T09:27:10;15.40;99.90
31084;DHT22;36333;51.382;0.016;2022-10-14T09:29:49;15.40;99.90
31084;DHT22;36333;51.382;0.016;2022-10-14T09:32:36;15.50;99.90
31084;DHT22;36333;51.382;0.016;2022-10-14T09:35:17;15.60;99.90
31084;DHT22;36333;51.382;0.016;2022-10-14T09:37:46;15.70;99.90
31084;DHT22;36333;51.382;0.016;2022-10-14T09:45:49;16.00;99.90
31084;DHT22;36333;51.382;0.016;2022-10-14T09:50:54;16.20;99.90
31084;DHT22;36333;51.382;0.016;2022-10-14T09:53:35;16.30;99.90
31084;DHT22;36333;51.382;0.016;2022-10-14T09:56:06;16.30;99.90
31084;DHT22;36333;51.382;0.016;2022-10-14T09:58:40;16.30;99.90
31084;DHT22;36333;51.382;0.016;2022-10-14T10:01:36;16.30;99.90
31084;DHT22;36333;51.382;0.016;2022-10-14T10:07:01;16.20;99.90
31084;DHT22;36333;51.382;0.016;2022-10-14T10:09:29;16.20;99.90
31084;DHT22;36333;51.382;0.016;2022-10-14T10:11:59;16.30;99.90
31084;DHT22;36333;51.382;0.016;2022-10-14T10:14:32;16.40;99.90
31084;DHT22;36333;51.382;0.016;2022-10-14T10:17:10;16.50;99.90
31084;DHT22;36333;51.382;0.016;2022-10-14T10:19:41;16.60;99.90
31084;DHT22;36333;51.382;0.016;2022-10-14T10:27:43;17.00;99.90
31084;DHT22;36333;51.382;0.016;2022-10-14T10:30:28;17.10;99.90
31084;DHT22;36333;51.382;0.016;2022-10-14T10:38:42;17.20;99.90
31084;DHT22;36333;51.382;0.016;2022-10-14T10:44:02;17.20;99.90
31084;DHT22;36333;51.382;0.016;2022-10-14T10:51:54;17.30;99.90
31084;DHT22;36333;51.382;0.016;2022-10-14T10:54:43;17.30;99.90
31084;DHT22;36333;51.382;0.016;2022-10-14T11:00:19;17.30;99.90
31084;DHT22;36333;51.382;0.016;2022-10-14T11:05:37;17.10;99.90
31084;DHT22;36333;51.382;0.016;2022-10-14T11:11:28;16.90;99.90
31084;DHT22;36333;51.382;0.016;2022-10-14T11:17:02;16.80;99.90
31084;DHT22;36333;51.382;0.016;2022-10-14T11:25:02;16.70;99.90
31084;DHT22;36333;51.382;0.016;2022-10-14T11:27:42;16.70;99.90
31084;DHT22;36333;51.382;0.016;2022-10-14T11:30:24;16.70;99.90
31084;DHT22;36333;51.382;0.016;2022-10-14T11:36:28;16.70;99.90
31084;DHT22;36333;51.382;0.016;2022-10-14T11:42:09;16.70;99.90
31084;DHT22;36333;51.382;0.016;2022-10-14T11:44:41;16.70;99.90
31084;DHT22;36333;51.382;0.016;2022-10-14T11:47:14;16.70;99.90
31084;DHT22;36333;51.382;0.016;2022-10-14T11:50:17;16.70;99.90
31084;DHT22;36333;51.382;0.016;2022-10-14T11:52:59;16.80;99.90
31084;DHT22;36333;51.382;0.016;2022-10-14T11:55:33;16.90;99.90
31084;DHT22;36333;51.382;0.016;2022-10-14T11:58:09;16.90;99.90
31084;DHT22;36333;51.382;0.016;2022-10-14T12:00:43;17.10;99.90
31084;DHT22;36333;51.382;0.016;2022-10-14T12:08:50;17.40;99.90
31084;DHT22;36333;51.382;0.016;2022-10-14T12:14:18;17.50;99.90
31084;DHT22;36333;51.382;0.016;2022-10-14T12:16:49;17.50;99.90
31084;DHT22;36333;51.382;0.016;2022-10-14T12:19:25;17.60;99.90
31084;DHT22;36333;51.382;0.016;2022-10-14T12:22:14;17.60;99.90
31084;DHT22;36333;51.382;0.016;2022-10-14T12:24:49;17.70;99.90
31084;DHT22;36333;51.382;0.016;2022-10-14T12:27:20;17.70;99.90
31084;DHT22;36333;51.382;0.016;2022-10-14T12:29:50;17.80;99.90
31084;DHT22;36333;51.382;0.016;2022-10-14T12:32:27;17.80;99.90
31084;DHT22;36333;51.382;0.016;2022-10-14T12:34:59;17.90;99.90
31084;DHT22;36333;51.382;0.016;2022-10-14T12:42:52;18.00;99.90
31084;DHT22;36333;51.382;0.016;2022-10-14T12:45:29;17.90;99.90
31084;DHT22;36333;51.382;0.016;2022-10-14T12:48:13;17.90;99.90
31084;DHT22;36333;51.382;0.016;2022-10-14T12:50:43;17.80;99.90
31084;DHT22;36333;51.382;0.016;2022-10-14T12:55:55;17.70;99.90
31084;DHT22;36333;51.382;0.016;2022-10-14T13:00:57;17.70;99.90
31084;DHT22;36333;51.382;0.016;2022-10-14T13:03:29;17.70;99.90
31084;DHT22;36333;51.382;0.016;2022-10-14T13:09:31;17.70;99.90
31084;DHT22;36333;51.382;0.016;2022-10-14T13:14:28;17.70;99.90
31084;DHT22;36333;51.382;0.016;2022-10-14T13:17:10;17.70;99.90
31084;DHT22;36333;51.382;0.016;2022-10-14T13:19:50;17.60;99.90
31084;DHT22;36333;51.382;0.016;2022-10-14T13:25:08;17.70;99.90
31084;DHT22;36333;51.382;0.016;2022-10-14T13:33:37;17.70;99.90
31084;DHT22;36333;51.382;0.016;2022-10-14T13:38:43;17.80;99.90
31084;DHT22;36333;51.382;0.016;2022-10-14T13:41:15;17.80;99.90
31084;DHT22;36333;51.382;0.016;2022-10-14T13:43:45;17.80;99.90
31084;DHT22;36333;51.382;0.016;2022-10-14T13:46:16;17.70;99.90
31084;DHT22;36333;51.382;0.016;2022-10-14T13:48:55;17.70;99.90
31084;DHT22;36333;51.382;0.016;2022-10-14T13:56:36;17.50;99.90
31084;DHT22;36333;51.382;0.016;2022-10-14T13:59:20;17.50;99.90
31084;DHT22;36333;51.382;0.016;2022-10-14T14:02:13;17.40;99.90
31084;DHT22;36333;51.382;0.016;2022-10-14T14:04:48;17.40;99.90
31084;DHT22;36333;51.382;0.016;2022-10-14T14:07:34;17.30;99.90
31084;DHT22;36333;51.382;0.016;2022-10-14T14:10:43;18.90;99.90
31084;DHT22;36333;51.382;0.016;2022-10-14T14:13:54;17.40;99.90
31084;DHT22;36333;51.382;0.016;2022-10-14T14:16:46;17.40;99.90
31084;DHT22;36333;51.382;0.016;2022-10-14T14:19:23;17.40;99.90
31084;DHT22;36333;51.382;0.016;2022-10-14T14:22:27;17.30;99.90
31084;DHT22;36333;51.382;0.016;2022-10-14T14:25:11;17.30;99.90
31084;DHT22;36333;51.382;0.016;2022-10-14T14:28:01;17.40;99.90
31084;DHT22;36333;51.382;0.016;2022-10-14T14:30:31;17.40;99.90
31084;DHT22;36333;51.382;0.016;2022-10-14T14:33:01;17.50;99.90
31084;DHT22;36333;51.382;0.016;2022-10-14T14:35:30;17.40;99.90
31084;DHT22;36333;51.382;0.016;2022-10-14T14:37:57;17.40;99.90
31084;DHT22;36333;51.382;0.016;2022-10-14T14:40:30;17.40;99.90
31084;DHT22;36333;51.382;0.016;2022-10-14T14:43:00;17.40;99.90
31084;DHT22;36333;51.382;0.016;2022-10-14T14:45:30;17.40;99.90
31084;DHT22;36333;51.382;0.016;2022-10-14T14:48:05;17.40;99.90
31084;DHT22;36333;51.382;0.016;2022-10-14T14:50:36;17.30;99.90
31084;DHT22;36333;51.382;0.016;2022-10-14T14:53:16;17.20;99.90
31084;DHT22;36333;51.382;0.016;2022-10-14T14:56:03;17.00;99.90
31084;DHT22;36333;51.382;0.016;2022-10-14T14:58:59;17.00;99.90
31084;DHT22;36333;51.382;0.016;2022-10-14T15:01:40;16.90;99.90
31084;DHT22;36333;51.382;0.016;2022-10-14T15:04:25;18.10;99.90
31084;DHT22;36333;51.382;0.016;2022-10-14T15:06:59;16.80;99.90
31084;DHT22;36333;51.382;0.016;2022-10-14T15:09:56;16.80;99.90
31084;DHT22;36333;51.382;0.016;2022-10-14T15:12:27;16.70;99.90
31084;DHT22;36333;51.382;0.016;2022-10-14T15:15:29;16.70;99.90
31084;DHT22;36333;51.382;0.016;2022-10-14T15:18:20;16.70;99.90
31084;DHT22;36333;51.382;0.016;2022-10-14T15:21:22;16.30;99.90
31084;DHT22;36333;51.382;0.016;2022-10-14T15:26:50;16.80;99.90
31084;DHT22;36333;51.382;0.016;2022-10-14T15:29:21;16.80;99.90
31084;DHT22;36333;51.382;0.016;2022-10-14T15:35:10;16.70;99.90
31084;DHT22;36333;51.382;0.016;2022-10-14T15:37:38;16.60;99.90
31084;DHT22;36333;51.382;0.016;2022-10-14T15:40:20;16.60;99.90
31084;DHT22;36333;51.382;0.016;2022-10-14T15:42:51;16.50;99.90
31084;DHT22;36333;51.382;0.016;2022-10-14T15:45:19;16.50;99.90
31084;DHT22;36333;51.382;0.016;2022-10-14T15:48:01;16.40;99.90
31084;DHT22;36333;51.382;0.016;2022-10-14T15:50:36;16.40;99.90
31084;DHT22;36333;51.382;0.016;2022-10-14T15:53:03;16.40;99.90
31084;DHT22;36333;51.382;0.016;2022-10-14T15:55:31;16.30;99.90
31084;DHT22;36333;51.382;0.016;2022-10-14T15:58:09;16.20;99.90
31084;DHT22;36333;51.382;0.016;2022-10-14T16:00:52;16.20;99.90
31084;DHT22;36333;51.382;0.016;2022-10-14T16:03:20;16.20;99.90
31084;DHT22;36333;51.382;0.016;2022-10-14T16:05:48;16.20;99.90
31084;DHT22;36333;51.382;0.016;2022-10-14T16:08:15;16.10;99.90
31084;DHT22;36333;51.382;0.016;2022-10-14T16:10:44;16.10;99.90
31084;DHT22;36333;51.382;0.016;2022-10-14T16:13:23;16.00;99.90
31084;DHT22;36333;51.382;0.016;2022-10-14T16:16:11;16.00;99.90
31084;DHT22;36333;51.382;0.016;2022-10-14T16:18:45;14.50;99.90
31084;DHT22;36333;51.382;0.016;2022-10-14T16:21:13;15.80;99.90
31084;DHT22;36333;51.382;0.016;2022-10-14T16:24:00;15.80;99.90
31084;DHT22;36333;51.382;0.016;2022-10-14T16:26:35;15.70;99.90
31084;DHT22;36333;51.382;0.016;2022-10-14T16:29:08;14.00;99.90
31084;DHT22;36333;51.382;0.016;2022-10-14T16:31:36;15.60;99.90
31084;DHT22;36333;51.382;0.016;2022-10-14T16:34:17;15.60;99.90
31084;DHT22;36333;51.382;0.016;2022-10-14T16:36:46;15.50;99.90
31084;DHT22;36333;51.382;0.016;2022-10-14T16:39:16;15.50;99.90
31084;DHT22;36333;51.382;0.016;2022-10-14T16:41:44;15.50;99.90
31084;DHT22;36333;51.382;0.016;2022-10-14T16:44:12;15.50;99.90
31084;DHT22;36333;51.382;0.016;2022-10-14T16:46:56;15.50;99.90
31084;DHT22;36333;51.382;0.016;2022-10-14T16:49:44;15.50;99.90
31084;DHT22;36333;51.382;0.016;2022-10-14T16:52:12;15.50;99.90
31084;DHT22;36333;51.382;0.016;2022-10-14T16:54:40;15.40;99.90
31084;DHT22;36333;51.382;0.016;2022-10-14T16:57:07;15.40;99.90
31084;DHT22;36333;51.382;0.016;2022-10-14T16:59:35;15.40;99.90
31084;DHT22;36333;51.382;0.016;2022-10-14T17:02:03;15.30;99.90
31084;DHT22;36333;51.382;0.016;2022-10-14T17:04:31;15.30;99.90
31084;DHT22;36333;51.382;0.016;2022-10-14T17:06:58;15.40;99.90
31084;DHT22;36333;51.382;0.016;2022-10-14T17:09:36;15.30;99.90
31084;DHT22;36333;51.382;0.016;2022-10-14T17:12:05;15.30;99.90
31084;DHT22;36333;51.382;0.016;2022-10-14T17:14:40;15.20;99.90
31084;DHT22;36333;51.382;0.016;2022-10-14T17:17:15;15.20;99.90
31084;DHT22;36333;51.382;0.016;2022-10-14T17:19:43;15.20;99.90
31084;DHT22;36333;51.382;0.016;2022-10-14T17:22:10;15.20;99.90
31084;DHT22;36333;51.382;0.016;2022-10-14T17:24:38;15.20;99.90
31084;DHT22;36333;51.382;0.016;2022-10-14T17:27:08;15.10;99.90
31084;DHT22;36333;51.382;0.016;2022-10-14T17:29:39;15.20;99.90
31084;DHT22;36333;51.382;0.016;2022-10-14T17:32:11;15.10;99.90
31084;DHT22;36333;51.382;0.016;2022-10-14T17:34:39;15.10;99.90
31084;DHT22;36333;51.382;0.016;2022-10-14T17:37:08;15.10;99.90
31084;DHT22;36333;51.382;0.016;2022-10-14T17:39:39;15.10;99.90
31084;DHT22;36333;51.382;0.016;2022-10-14T17:42:07;15.10;99.90
31084;DHT22;36333;51.382;0.016;2022-10-14T17:44:34;15.10;99.90
31084;DHT22;36333;51.382;0.016;2022-10-14T17:47:07;15.00;99.90
31084;DHT22;36333;51.382;0.016;2022-10-14T17:49:37;15.00;99.90
31084;DHT22;36333;51.382;0.016;2022-10-14T17:52:09;15.00;99.90
31084;DHT22;36333;51.382;0.016;2022-10-14T17:54:40;14.20;99.90
31084;DHT22;36333;51.382;0.016;2022-10-14T17:57:07;15.00;99.90
31084;DHT22;36333;51.382;0.016;2022-10-14T17:59:35;15.00;99.90
31084;DHT22;36333;51.382;0.016;2022-10-14T18:02:02;14.90;99.90
31084;DHT22;36333;51.382;0.016;2022-10-14T18:04:31;14.90;99.90
31084;DHT22;36333;51.382;0.016;2022-10-14T18:07:01;14.90;99.90
31084;DHT22;36333;51.382;0.016;2022-10-14T18:09:29;15.10;99.90
31084;DHT22;36333;51.382;0.016;2022-10-14T18:11:56;14.70;99.90
31084;DHT22;36333;51.382;0.016;2022-10-14T18:14:45;14.70;99.90
31084;DHT22;36333;51.382;0.016;2022-10-14T18:17:12;14.70;99.90
31084;DHT22;36333;51.382;0.016;2022-10-14T18:19:40;14.60;99.90
31084;DHT22;36333;51.382;0.016;2022-10-14T18:22:08;14.50;99.90
31084;DHT22;36333;51.382;0.016;2022-10-14T18:24:37;14.50;99.90
31084;DHT22;36333;51.382;0.016;2022-10-14T18:27:05;14.50;99.90